Lakeway's Hourly Summary for Wednesday, July 11, 2018
Hour Temp
(f)
RH
(%)
Solar Rad.
(MJ/m2)
Rainfall
(in)
Wind
(mph)
7/11/2018 12:00 AM 80 77 0 0 2.73
7/11/2018 1:00 AM 79 82 0 0 2.12
7/11/2018 2:00 AM 78 85 0 0 1.67
7/11/2018 3:00 AM 77 89 0 0 0.86
7/11/2018 4:00 AM 76 89 0 0 0.86
7/11/2018 5:00 AM 75 92 0 0 0.75
7/11/2018 6:00 AM 74 94 0.01 0 0.05
7/11/2018 7:00 AM 74 94 0.11 0 0.1
7/11/2018 8:00 AM 77 92 0.48 0 0.33
7/11/2018 9:00 AM 81 79 1.6 0 0.52
7/11/2018 10:00 AM 85 67 2.25 0 0.65
7/11/2018 11:00 AM 89 56 2.77 0 1.06
7/11/2018 12:00 PM 91 49 3.15 0 1.06
7/11/2018 1:00 PM 93 38 3.28 0 1.85
7/11/2018 2:00 PM 94 35 3.28 0 2.3
7/11/2018 3:00 PM 95 35 3.18 0 2.3
7/11/2018 4:00 PM 95 35 2.99 0 2.25
7/11/2018 5:00 PM 94 37 2.4 0 2.3
7/11/2018 6:00 PM 94 38 1.92 0 2.67
7/11/2018 7:00 PM 93 40 1.27 0 2.67
7/11/2018 8:00 PM 90 44 0.47 0 2.61
7/11/2018 9:00 PM 88 49 0.06 0 1.24
7/11/2018 10:00 PM 85 54 0 0 0.83
7/11/2018 11:00 PM 83 63 0 0 0.58
Data Summary 85 63 29.22 0.00 1.43